Las Vegas, Nevada
Traffic Map
Current Weather Conditions
Las Vegas, Nevada
Scattered Clouds
Scattered Clouds
37°
Feels Like: 37°
Wind Chill: 37° Ceiling: Unl
Heat Index: 37° Visibility: 10mi
Dew Point: Wind: 21mph
Humidity: 18% Direction: 170° (S)
Pressure: 29.78in Gusts: 28mph
Raw Report DataKLAS 250556Z 17018G24KT 10SM FEW150 SCT250 37/08 A2978 RMK AO2 SLP047 T03670083 10433 20367 51016
Traffic Incident Summary
Active as of:
Severity:
Category:
InformationThere was an issue retrieving the traffic information for this location. Please try a different location or try again shortly.
Advertisements
Track Severe Weather on mobile